sensor_id;sensor_type;location;lat;lon;timestamp;P1;durP1;ratioP1;P2;durP2;ratioP2
8268;SDS011;4174;48.304;16.364;2023-03-05T00:03:42;23.50;;;8.80;;
8268;SDS011;4174;48.304;16.364;2023-03-05T00:09:46;20.88;;;7.97;;
8268;SDS011;4174;48.304;16.364;2023-03-05T00:15:49;21.98;;;8.00;;
8268;SDS011;4174;48.304;16.364;2023-03-05T00:21:53;20.93;;;8.17;;
8268;SDS011;4174;48.304;16.364;2023-03-05T00:27:57;19.13;;;7.80;;
8268;SDS011;4174;48.304;16.364;2023-03-05T00:34:02;21.63;;;7.73;;
8268;SDS011;4174;48.304;16.364;2023-03-05T00:40:05;19.98;;;7.78;;
8268;SDS011;4174;48.304;16.364;2023-03-05T00:46:11;21.07;;;7.77;;
8268;SDS011;4174;48.304;16.364;2023-03-05T00:52:14;23.23;;;8.53;;
8268;SDS011;4174;48.304;16.364;2023-03-05T00:58:19;18.97;;;7.73;;
8268;SDS011;4174;48.304;16.364;2023-03-05T01:04:23;19.77;;;7.45;;
8268;SDS011;4174;48.304;16.364;2023-03-05T01:10:27;18.53;;;7.40;;
8268;SDS011;4174;48.304;16.364;2023-03-05T01:16:29;19.45;;;7.40;;
8268;SDS011;4174;48.304;16.364;2023-03-05T01:22:32;22.03;;;7.57;;
8268;SDS011;4174;48.304;16.364;2023-03-05T01:28:36;20.07;;;8.17;;
8268;SDS011;4174;48.304;16.364;2023-03-05T01:34:40;20.23;;;8.02;;
8268;SDS011;4174;48.304;16.364;2023-03-05T01:40:43;20.73;;;7.60;;
8268;SDS011;4174;48.304;16.364;2023-03-05T01:46:47;21.97;;;8.37;;
8268;SDS011;4174;48.304;16.364;2023-03-05T01:52:54;20.55;;;7.72;;
8268;SDS011;4174;48.304;16.364;2023-03-05T01:58:55;20.20;;;8.30;;
8268;SDS011;4174;48.304;16.364;2023-03-05T02:04:59;21.03;;;8.43;;
8268;SDS011;4174;48.304;16.364;2023-03-05T02:11:03;20.70;;;8.23;;
8268;SDS011;4174;48.304;16.364;2023-03-05T02:17:07;20.17;;;8.10;;
8268;SDS011;4174;48.304;16.364;2023-03-05T02:23:09;20.47;;;8.07;;
8268;SDS011;4174;48.304;16.364;2023-03-05T02:29:14;20.30;;;8.10;;
8268;SDS011;4174;48.304;16.364;2023-03-05T02:35:15;23.40;;;8.57;;
8268;SDS011;4174;48.304;16.364;2023-03-05T02:41:18;21.17;;;8.00;;
8268;SDS011;4174;48.304;16.364;2023-03-05T02:47:21;23.87;;;8.97;;
8268;SDS011;4174;48.304;16.364;2023-03-05T02:53:25;23.73;;;8.60;;
8268;SDS011;4174;48.304;16.364;2023-03-05T02:59:30;22.07;;;8.50;;
8268;SDS011;4174;48.304;16.364;2023-03-05T03:05:34;21.87;;;8.50;;
8268;SDS011;4174;48.304;16.364;2023-03-05T03:11:37;22.53;;;8.60;;
8268;SDS011;4174;48.304;16.364;2023-03-05T03:17:41;20.73;;;8.20;;
8268;SDS011;4174;48.304;16.364;2023-03-05T03:23:43;20.17;;;8.17;;
8268;SDS011;4174;48.304;16.364;2023-03-05T03:29:47;21.50;;;8.53;;
8268;SDS011;4174;48.304;16.364;2023-03-05T03:35:50;20.37;;;8.37;;
8268;SDS011;4174;48.304;16.364;2023-03-05T03:41:54;22.30;;;8.50;;
8268;SDS011;4174;48.304;16.364;2023-03-05T03:47:58;22.97;;;8.40;;
8268;SDS011;4174;48.304;16.364;2023-03-05T03:54:01;22.27;;;8.88;;
8268;SDS011;4174;48.304;16.364;2023-03-05T04:00:05;22.37;;;8.77;;
8268;SDS011;4174;48.304;16.364;2023-03-05T04:06:10;20.60;;;9.00;;
8268;SDS011;4174;48.304;16.364;2023-03-05T04:12:14;22.77;;;9.02;;
8268;SDS011;4174;48.304;16.364;2023-03-05T04:18:17;23.80;;;8.87;;
8268;SDS011;4174;48.304;16.364;2023-03-05T04:24:22;23.00;;;8.35;;
8268;SDS011;4174;48.304;16.364;2023-03-05T04:30:27;21.48;;;8.73;;
8268;SDS011;4174;48.304;16.364;2023-03-05T04:36:30;21.83;;;8.73;;
8268;SDS011;4174;48.304;16.364;2023-03-05T04:42:34;21.43;;;8.63;;
8268;SDS011;4174;48.304;16.364;2023-03-05T04:48:38;20.40;;;8.50;;
8268;SDS011;4174;48.304;16.364;2023-03-05T04:54:42;20.37;;;8.23;;
8268;SDS011;4174;48.304;16.364;2023-03-05T05:00:44;21.60;;;8.50;;
8268;SDS011;4174;48.304;16.364;2023-03-05T05:06:48;20.37;;;8.40;;
8268;SDS011;4174;48.304;16.364;2023-03-05T05:12:51;22.00;;;8.50;;
8268;SDS011;4174;48.304;16.364;2023-03-05T05:18:55;20.93;;;8.47;;
8268;SDS011;4174;48.304;16.364;2023-03-05T05:24:58;22.90;;;8.80;;
8268;SDS011;4174;48.304;16.364;2023-03-05T05:31:05;20.25;;;8.27;;
8268;SDS011;4174;48.304;16.364;2023-03-05T05:37:04;20.88;;;8.50;;
8268;SDS011;4174;48.304;16.364;2023-03-05T05:43:08;20.40;;;8.33;;
8268;SDS011;4174;48.304;16.364;2023-03-05T05:49:11;20.90;;;8.60;;
8268;SDS011;4174;48.304;16.364;2023-03-05T05:55:15;20.87;;;8.10;;
8268;SDS011;4174;48.304;16.364;2023-03-05T06:01:22;19.43;;;7.93;;
8268;SDS011;4174;48.304;16.364;2023-03-05T06:07:24;21.47;;;8.23;;
8268;SDS011;4174;48.304;16.364;2023-03-05T06:13:27;20.73;;;8.33;;
8268;SDS011;4174;48.304;16.364;2023-03-05T06:19:31;21.67;;;8.77;;
8268;SDS011;4174;48.304;16.364;2023-03-05T06:25:36;20.80;;;8.33;;
8268;SDS011;4174;48.304;16.364;2023-03-05T06:31:37;20.25;;;8.07;;
8268;SDS011;4174;48.304;16.364;2023-03-05T06:37:41;22.70;;;8.90;;
8268;SDS011;4174;48.304;16.364;2023-03-05T06:43:45;21.67;;;8.60;;
8268;SDS011;4174;48.304;16.364;2023-03-05T06:49:48;21.25;;;8.55;;
8268;SDS011;4174;48.304;16.364;2023-03-05T06:55:52;22.50;;;9.20;;
8268;SDS011;4174;48.304;16.364;2023-03-05T07:01:54;23.65;;;8.73;;
8268;SDS011;4174;48.304;16.364;2023-03-05T07:07:58;23.57;;;9.30;;
8268;SDS011;4174;48.304;16.364;2023-03-05T07:14:02;23.07;;;8.53;;
8268;SDS011;4174;48.304;16.364;2023-03-05T07:20:04;20.67;;;8.73;;
8268;SDS011;4174;48.304;16.364;2023-03-05T07:26:10;23.60;;;9.57;;
8268;SDS011;4174;48.304;16.364;2023-03-05T07:32:12;24.30;;;8.83;;
8268;SDS011;4174;48.304;16.364;2023-03-05T07:38:16;25.93;;;10.10;;
8268;SDS011;4174;48.304;16.364;2023-03-05T07:44:19;24.10;;;9.40;;
8268;SDS011;4174;48.304;16.364;2023-03-05T07:50:22;25.27;;;10.20;;
8268;SDS011;4174;48.304;16.364;2023-03-05T07:56:27;23.80;;;9.90;;
8268;SDS011;4174;48.304;16.364;2023-03-05T08:02:30;22.67;;;8.80;;
8268;SDS011;4174;48.304;16.364;2023-03-05T08:08:34;23.03;;;9.77;;
8268;SDS011;4174;48.304;16.364;2023-03-05T08:14:38;23.53;;;9.87;;
8268;SDS011;4174;48.304;16.364;2023-03-05T08:20:41;24.37;;;9.60;;
8268;SDS011;4174;48.304;16.364;2023-03-05T08:26:45;23.43;;;9.70;;
8268;SDS011;4174;48.304;16.364;2023-03-05T08:32:49;23.90;;;9.50;;
8268;SDS011;4174;48.304;16.364;2023-03-05T08:38:53;22.93;;;9.83;;
8268;SDS011;4174;48.304;16.364;2023-03-05T08:44:57;24.52;;;9.90;;
8268;SDS011;4174;48.304;16.364;2023-03-05T08:51:07;23.60;;;9.43;;
8268;SDS011;4174;48.304;16.364;2023-03-05T08:57:09;21.62;;;9.48;;
8268;SDS011;4174;48.304;16.364;2023-03-05T09:03:14;23.43;;;9.63;;
8268;SDS011;4174;48.304;16.364;2023-03-05T09:09:18;21.97;;;9.50;;
8268;SDS011;4174;48.304;16.364;2023-03-05T09:15:22;24.30;;;9.80;;
8268;SDS011;4174;48.304;16.364;2023-03-05T09:21:26;23.73;;;9.80;;
8268;SDS011;4174;48.304;16.364;2023-03-05T09:27:32;25.10;;;10.32;;
8268;SDS011;4174;48.304;16.364;2023-03-05T09:33:37;24.50;;;9.70;;
8268;SDS011;4174;48.304;16.364;2023-03-05T09:39:39;23.53;;;9.73;;
8268;SDS011;4174;48.304;16.364;2023-03-05T09:45:46;22.62;;;9.80;;
8268;SDS011;4174;48.304;16.364;2023-03-05T09:51:49;22.17;;;9.90;;
8268;SDS011;4174;48.304;16.364;2023-03-05T09:57:51;20.83;;;9.30;;
8268;SDS011;4174;48.304;16.364;2023-03-05T10:03:56;21.87;;;9.38;;
8268;SDS011;4174;48.304;16.364;2023-03-05T10:10:03;18.87;;;8.38;;
8268;SDS011;4174;48.304;16.364;2023-03-05T10:17:20;19.75;;;8.75;;
8268;SDS011;4174;48.304;16.364;2023-03-05T10:22:35;23.53;;;9.57;;
8268;SDS011;4174;48.304;16.364;2023-03-05T10:29:05;20.75;;;9.02;;
8268;SDS011;4174;48.304;16.364;2023-03-05T10:41:55;25.05;;;9.82;;
8268;SDS011;4174;48.304;16.364;2023-03-05T10:48:09;21.33;;;8.75;;
8268;SDS011;4174;48.304;16.364;2023-03-05T10:54:34;19.12;;;8.50;;
8268;SDS011;4174;48.304;16.364;2023-03-05T11:00:38;21.00;;;8.97;;
8268;SDS011;4174;48.304;16.364;2023-03-05T11:06:42;20.47;;;9.13;;
8268;SDS011;4174;48.304;16.364;2023-03-05T11:12:44;19.90;;;8.70;;
8268;SDS011;4174;48.304;16.364;2023-03-05T11:18:46;23.37;;;9.43;;
8268;SDS011;4174;48.304;16.364;2023-03-05T11:31:24;21.40;;;9.10;;
8268;SDS011;4174;48.304;16.364;2023-03-05T11:37:33;23.83;;;9.93;;
8268;SDS011;4174;48.304;16.364;2023-03-05T11:43:37;24.67;;;10.60;;
8268;SDS011;4174;48.304;16.364;2023-03-05T11:49:41;24.73;;;9.82;;
8268;SDS011;4174;48.304;16.364;2023-03-05T11:55:44;29.33;;;10.63;;
8268;SDS011;4174;48.304;16.364;2023-03-05T12:01:55;23.98;;;8.82;;
8268;SDS011;4174;48.304;16.364;2023-03-05T12:07:58;25.40;;;10.10;;
8268;SDS011;4174;48.304;16.364;2023-03-05T12:14:03;19.40;;;7.07;;
8268;SDS011;4174;48.304;16.364;2023-03-05T12:20:12;15.37;;;5.50;;
8268;SDS011;4174;48.304;16.364;2023-03-05T12:26:15;12.48;;;4.50;;
8268;SDS011;4174;48.304;16.364;2023-03-05T12:32:50;11.87;;;4.30;;
8268;SDS011;4174;48.304;16.364;2023-03-05T12:38:54;10.88;;;3.50;;
8268;SDS011;4174;48.304;16.364;2023-03-05T12:51:28;8.63;;;2.90;;
8268;SDS011;4174;48.304;16.364;2023-03-05T12:57:31;7.67;;;2.70;;
8268;SDS011;4174;48.304;16.364;2023-03-05T13:03:36;8.30;;;3.03;;
8268;SDS011;4174;48.304;16.364;2023-03-05T13:09:41;8.70;;;2.67;;
8268;SDS011;4174;48.304;16.364;2023-03-05T13:15:45;7.30;;;2.42;;
8268;SDS011;4174;48.304;16.364;2023-03-05T13:21:55;7.97;;;2.70;;
8268;SDS011;4174;48.304;16.364;2023-03-05T13:28:09;7.45;;;2.20;;
8268;SDS011;4174;48.304;16.364;2023-03-05T13:34:42;7.43;;;2.23;;
8268;SDS011;4174;48.304;16.364;2023-03-05T13:40:31;7.57;;;2.20;;
8268;SDS011;4174;48.304;16.364;2023-03-05T13:46:35;5.67;;;1.90;;
8268;SDS011;4174;48.304;16.364;2023-03-05T13:52:36;6.63;;;2.00;;
8268;SDS011;4174;48.304;16.364;2023-03-05T13:58:40;6.83;;;2.10;;
8268;SDS011;4174;48.304;16.364;2023-03-05T14:04:45;8.15;;;2.50;;
8268;SDS011;4174;48.304;16.364;2023-03-05T14:10:48;8.02;;;2.28;;
8268;SDS011;4174;48.304;16.364;2023-03-05T14:16:52;7.32;;;2.37;;
8268;SDS011;4174;48.304;16.364;2023-03-05T14:22:57;7.57;;;2.60;;
8268;SDS011;4174;48.304;16.364;2023-03-05T14:29:00;7.67;;;2.53;;
8268;SDS011;4174;48.304;16.364;2023-03-05T14:35:03;8.13;;;2.60;;
8268;SDS011;4174;48.304;16.364;2023-03-05T14:41:41;8.27;;;2.67;;
8268;SDS011;4174;48.304;16.364;2023-03-05T14:47:39;7.83;;;2.70;;
8268;SDS011;4174;48.304;16.364;2023-03-05T14:53:43;8.75;;;3.05;;
8268;SDS011;4174;48.304;16.364;2023-03-05T14:59:45;9.00;;;3.10;;
8268;SDS011;4174;48.304;16.364;2023-03-05T15:05:51;7.28;;;2.12;;
8268;SDS011;4174;48.304;16.364;2023-03-05T15:11:53;6.97;;;2.63;;
8268;SDS011;4174;48.304;16.364;2023-03-05T15:17:56;7.53;;;2.70;;
8268;SDS011;4174;48.304;16.364;2023-03-05T15:24:00;8.63;;;2.43;;
8268;SDS011;4174;48.304;16.364;2023-03-05T15:30:05;6.85;;;2.58;;
8268;SDS011;4174;48.304;16.364;2023-03-05T15:36:11;11.97;;;3.57;;
8268;SDS011;4174;48.304;16.364;2023-03-05T15:42:15;7.77;;;2.50;;
8268;SDS011;4174;48.304;16.364;2023-03-05T15:48:19;7.35;;;2.58;;
8268;SDS011;4174;48.304;16.364;2023-03-05T15:54:22;7.70;;;2.70;;
8268;SDS011;4174;48.304;16.364;2023-03-05T16:00:27;7.12;;;2.30;;
8268;SDS011;4174;48.304;16.364;2023-03-05T16:06:35;8.43;;;2.50;;
8268;SDS011;4174;48.304;16.364;2023-03-05T16:12:38;8.02;;;2.50;;
8268;SDS011;4174;48.304;16.364;2023-03-05T16:18:42;7.83;;;2.70;;
8268;SDS011;4174;48.304;16.364;2023-03-05T16:24:45;12.30;;;3.80;;
8268;SDS011;4174;48.304;16.364;2023-03-05T16:30:51;10.07;;;3.62;;
8268;SDS011;4174;48.304;16.364;2023-03-05T16:36:53;9.27;;;3.35;;
8268;SDS011;4174;48.304;16.364;2023-03-05T16:42:57;10.10;;;3.87;;
8268;SDS011;4174;48.304;16.364;2023-03-05T16:49:01;9.82;;;3.70;;
8268;SDS011;4174;48.304;16.364;2023-03-05T16:55:05;10.27;;;3.50;;
8268;SDS011;4174;48.304;16.364;2023-03-05T17:01:10;8.70;;;3.27;;
8268;SDS011;4174;48.304;16.364;2023-03-05T17:07:12;8.98;;;3.00;;
8268;SDS011;4174;48.304;16.364;2023-03-05T17:13:16;10.00;;;3.27;;
8268;SDS011;4174;48.304;16.364;2023-03-05T17:19:19;9.63;;;3.43;;
8268;SDS011;4174;48.304;16.364;2023-03-05T17:25:23;11.20;;;3.20;;
8268;SDS011;4174;48.304;16.364;2023-03-05T17:31:28;9.48;;;3.28;;
8268;SDS011;4174;48.304;16.364;2023-03-05T17:37:31;10.07;;;3.30;;
8268;SDS011;4174;48.304;16.364;2023-03-05T17:43:34;8.45;;;3.00;;
8268;SDS011;4174;48.304;16.364;2023-03-05T17:49:37;8.40;;;2.97;;
8268;SDS011;4174;48.304;16.364;2023-03-05T17:55:40;7.93;;;2.80;;
8268;SDS011;4174;48.304;16.364;2023-03-05T18:01:44;13.60;;;5.37;;
8268;SDS011;4174;48.304;16.364;2023-03-05T18:07:48;9.83;;;4.10;;
8268;SDS011;4174;48.304;16.364;2023-03-05T18:13:52;10.13;;;3.93;;
8268;SDS011;4174;48.304;16.364;2023-03-05T18:19:56;11.15;;;4.60;;
8268;SDS011;4174;48.304;16.364;2023-03-05T18:26:00;13.77;;;4.22;;
8268;SDS011;4174;48.304;16.364;2023-03-05T18:32:04;12.45;;;4.70;;
8268;SDS011;4174;48.304;16.364;2023-03-05T18:38:07;13.67;;;5.13;;
8268;SDS011;4174;48.304;16.364;2023-03-05T18:44:12;12.77;;;4.72;;
8268;SDS011;4174;48.304;16.364;2023-03-05T18:50:15;14.60;;;5.47;;
8268;SDS011;4174;48.304;16.364;2023-03-05T18:56:20;13.70;;;5.90;;
8268;SDS011;4174;48.304;16.364;2023-03-05T19:02:23;13.05;;;5.00;;
8268;SDS011;4174;48.304;16.364;2023-03-05T19:08:27;12.00;;;5.03;;
8268;SDS011;4174;48.304;16.364;2023-03-05T19:14:31;13.83;;;4.80;;
8268;SDS011;4174;48.304;16.364;2023-03-05T19:20:34;10.60;;;3.90;;
8268;SDS011;4174;48.304;16.364;2023-03-05T19:26:37;9.90;;;3.60;;
8268;SDS011;4174;48.304;16.364;2023-03-05T19:32:40;11.17;;;3.80;;
8268;SDS011;4174;48.304;16.364;2023-03-05T19:38:44;11.30;;;4.50;;
8268;SDS011;4174;48.304;16.364;2023-03-05T19:44:47;11.75;;;4.40;;
8268;SDS011;4174;48.304;16.364;2023-03-05T19:50:50;10.33;;;4.17;;
8268;SDS011;4174;48.304;16.364;2023-03-05T19:56:54;14.87;;;6.10;;
8268;SDS011;4174;48.304;16.364;2023-03-05T20:02:58;13.27;;;5.20;;
8268;SDS011;4174;48.304;16.364;2023-03-05T20:09:02;12.27;;;4.70;;
8268;SDS011;4174;48.304;16.364;2023-03-05T20:15:06;10.87;;;4.50;;
8268;SDS011;4174;48.304;16.364;2023-03-05T20:21:13;12.10;;;4.20;;
8268;SDS011;4174;48.304;16.364;2023-03-05T20:27:15;12.63;;;5.10;;
8268;SDS011;4174;48.304;16.364;2023-03-05T20:33:19;13.73;;;5.78;;
8268;SDS011;4174;48.304;16.364;2023-03-05T20:39:22;14.03;;;5.50;;
8268;SDS011;4174;48.304;16.364;2023-03-05T20:45:28;12.97;;;5.60;;
8268;SDS011;4174;48.304;16.364;2023-03-05T20:51:32;13.23;;;5.57;;
8268;SDS011;4174;48.304;16.364;2023-03-05T20:57:35;13.43;;;5.73;;
8268;SDS011;4174;48.304;16.364;2023-03-05T21:03:39;14.80;;;5.47;;
8268;SDS011;4174;48.304;16.364;2023-03-05T21:09:41;13.43;;;5.67;;
8268;SDS011;4174;48.304;16.364;2023-03-05T21:15:44;16.80;;;6.70;;
8268;SDS011;4174;48.304;16.364;2023-03-05T21:21:48;15.80;;;6.50;;
8268;SDS011;4174;48.304;16.364;2023-03-05T21:27:53;18.97;;;8.07;;
8268;SDS011;4174;48.304;16.364;2023-03-05T21:33:56;20.15;;;8.50;;
8268;SDS011;4174;48.304;16.364;2023-03-05T21:40:00;23.23;;;9.07;;
8268;SDS011;4174;48.304;16.364;2023-03-05T21:46:03;17.97;;;7.00;;
8268;SDS011;4174;48.304;16.364;2023-03-05T21:52:09;20.33;;;7.77;;
8268;SDS011;4174;48.304;16.364;2023-03-05T21:58:10;18.40;;;7.80;;
8268;SDS011;4174;48.304;16.364;2023-03-05T22:04:12;16.10;;;7.10;;
8268;SDS011;4174;48.304;16.364;2023-03-05T22:10:17;18.00;;;7.73;;
8268;SDS011;4174;48.304;16.364;2023-03-05T22:16:19;16.23;;;7.40;;
8268;SDS011;4174;48.304;16.364;2023-03-05T22:22:23;19.02;;;7.60;;
8268;SDS011;4174;48.304;16.364;2023-03-05T22:28:26;15.60;;;6.60;;
8268;SDS011;4174;48.304;16.364;2023-03-05T22:34:30;16.70;;;6.78;;
8268;SDS011;4174;48.304;16.364;2023-03-05T22:40:34;17.12;;;6.90;;
8268;SDS011;4174;48.304;16.364;2023-03-05T22:46:37;17.10;;;7.60;;
8268;SDS011;4174;48.304;16.364;2023-03-05T22:52:40;17.53;;;7.77;;
8268;SDS011;4174;48.304;16.364;2023-03-05T22:58:44;16.52;;;7.47;;
8268;SDS011;4174;48.304;16.364;2023-03-05T23:04:47;19.27;;;7.47;;
8268;SDS011;4174;48.304;16.364;2023-03-05T23:10:50;17.53;;;7.00;;
8268;SDS011;4174;48.304;16.364;2023-03-05T23:16:54;17.50;;;7.10;;
8268;SDS011;4174;48.304;16.364;2023-03-05T23:22:57;16.13;;;6.33;;
8268;SDS011;4174;48.304;16.364;2023-03-05T23:29:00;13.70;;;5.70;;
8268;SDS011;4174;48.304;16.364;2023-03-05T23:35:03;13.43;;;5.07;;
8268;SDS011;4174;48.304;16.364;2023-03-05T23:41:07;13.40;;;4.87;;
8268;SDS011;4174;48.304;16.364;2023-03-05T23:47:11;12.77;;;4.90;;
8268;SDS011;4174;48.304;16.364;2023-03-05T23:53:17;12.20;;;5.07;;
8268;SDS011;4174;48.304;16.364;2023-03-05T23:59:21;13.80;;;5.05;;
